espera

Reventón / Frente de racha

Revisado con fiabilidad Alta por el usuario rrequenab (AEMET)
Introducido por:
meteoaragon el 02-07-18
Agrupación:
Sin Grupo
Fecha y hora:
01-07-2018 19:00
Precisión hora:
+/- 15 minutos
Latitud/Longitud:
41.666349 / -1.004691
Altitud lugar:
238 metros
Dirección:
Camino de Bárboles, 399, 50190 Zaragoza, España
Detalles del lugar:
En el entrono de la localidad de Garrapinillos y en el aeropuerto de Zaragoza
Cómo sucedió:
Reventón asociado a una tormenta muy fuerte, que dio lugar ha una racha de 157 km/h en el aeropuerto de Zaragoza. La tormenta vino acompañada de lluvia torrencial (16 mm en 10 minutos).
La fuerza del viento ha provocado la caída de muchos arboles de grandes dimensiones, algunos contenedores han volado cientos de metros y algunos daños en casas de la zona.
Intensidad del evento (escala Fujita):
EF1: 138-178 km/h
Intensidad del evento (escala Torro):
T3: 148-184 km/h
Racha de viento máxima medida:
157 km/h
Duración del fenómeno:
15 minutos
Fenómenos que acompañaron el evento:
* Lluvia fuerte
* Granizo mediano
* Tormenta
De que otro fenómeno pudo tratarse:
SD
Longitud aprox. de la trayectoria:
SD
Anchura media aprox. de la trayectoria:
SD
Anchura máxima aprox. de la trayectoria:
SD
Avanzaba en la dirección:
suroeste a noreste
Daños en bienes:
Postes de electricidad y algunos muros derribados.
Daños en campos, bosques...:
Multitud de árboles de gran tamaño han resultado arrancados.
Valoración de los daños:
Sin Datos
Personas heridas:
Sin Datos
Personas fallecidas:
Sin Datos
Fuentes de la información:
* Testigo de los daños
* Información en sitios webs
* Fotos o videos del evento
* Fotos o videos de los daños
Enlaces relacionados:
https://twitter.com/MeteoZGZ/status/1013541167022116864 => Aportado por delia el día 02-07-2018. Video en el aeropuerto
Videos relacionados:
Sin Videos
Pdf´s relacionados:
http://www.aemet.es/documentos/es/conocermas/recursos_en_linea/publicaciones_y_estudios/publicaciones/NT_29_AEMET/NT_29_Informe_convecc_Zaragoza.pdf => Aportado por meteocharlieb el día 01-03-2020. Nota Técnica 29 de AEMET: Informe sobre la convección muy organizada y de tipo supercelular del día 1 de julio de 2018 en la provincia de Zaragoza
© AEMET no se hace responsable de los comentarios introducidos sobre cada reporte.
Hay 0 comentarios. Por favor, deje el suyo...
Páginas: Todas

Sin comentarios todavía. ¡ Sea el primero !


Añadir un comentario :

Lo siento, necesita registrarse y/o identificarse antes de poder poner un comentario.

ÚLTIMA REVISIÓN AL REPORTE :
Revisión realizada por :
rrequenab
Realizada el día :
2018-07-02 14:47:50
Fiabilidad del reporte :
3
¿Existe un informe de AEMET? :
No
Comentarios sobre la fiabilidad del reporte :
Paso de probable supercélula por el aeropuerto de Zaragoza. Se aprecia tanto mesociclón (imagen mesociclon.png) como abalconamiento (abalconamiento.png) en el análisis radar. Precipitación en el aeropuerto de Zaragoza de 24 mm en 20 minutos. Según los SPECI del aeropuerto de Zaragoza, se pasa de 15 kt de viento a medio a 49 kt en dos minutos y a 61 kt en un minuto más, alcanzándose rachas de 85 kt (dato aeronáutico, no válido para efemérides climatológicas). También se registra tormenta y granizo.

SPECI LEZG 011649Z 15061G85KT 060V200 0050 R30R/0700D +TSGRRA SCT040CB BKN085 18/16 Q1011=

SPECI LEZG 011648Z 16049G85KT 0200 R30R/1900D TSRA SCT040CB BKN085 22/16 Q1009=

SPECI LEZG 011646Z 16015KT 120V190 7000 2500E TSRA SCT040CB BKN085 28/20 Q1008=

El evento se produjo en torno las 16:50UTC (18:50 hora local).
Estado y localización (url, informe, ...) del informe de AEMET :
© AEMET. Autorizado el uso de la información y su reproducción citando a AEMET como autora de la misma.
La información aquí contenida no puede utilizarse con fines administrativos o legales
    
Nota legal        Accesibilidad Web